»·PEaware :: ASA68 KSEA-KBOI

ASA68 :: KSEA-KBOI

FLIGHT INFORMATION

Flight Status: Arrived
Operator:
Alaska Airlines
More flights by this operator :: More flights under this callsign
Pilot: Steve F. (26981)
Aircraft: BOEING 737-800
(B738)
More flights by this aircraft type
Origin: KSEA Seattle-Tacoma Intl
United States
Destination: KBOI Boise Air Terminal/Gowen
United States
More flights between these airports :: More routes between these airports
Route: +SUMMA2 SUMMA J54 BKE DEVLE KYAAN3
File this flight plan on PilotEdge
Remarks:
Altitude:
(Current/Filed)
31,000ft
Speed:
(Current/Filed)
430kts
Departed: 11-Oct-20 09:42 AM
Arrived: 11-Oct-20 10:36 AM
Distance/Time
Traveled:
346nm/0:54
Distance/Time
To Go:
Arrived

Flight Plot

Page will automatically refresh every two minutes.

Flight plan parsing failed; only flown route is shown


Map Options




Map Legend


Flown Route
Filed Route
Departure Airport
Arrival Airport
Navaid (VOR, NDB)
Fix

Horizontal Profiles

Position Reports

Time Latitude Longitude Heading Altitude Ground
Speed
11-Oct-20 09:27 47.446032 -122.305531 50 441ft 0kts
11-Oct-20 09:28 47.446033 -122.305529 50 441ft 0kts
11-Oct-20 09:29 47.446034 -122.305527 50 441ft 0kts
11-Oct-20 09:30 47.446035 -122.305525 50 441ft 0kts
11-Oct-20 09:31 47.446036 -122.305523 50 441ft 0kts
11-Oct-20 09:32 47.446037 -122.305521 50 441ft 0kts
11-Oct-20 09:33 47.446038 -122.305520 50 441ft 0kts
11-Oct-20 09:34 47.446039 -122.305518 50 441ft 0kts
11-Oct-20 09:35 47.446040 -122.305516 50 441ft 0kts
11-Oct-20 09:36 47.446041 -122.305514 50 441ft 0kts
11-Oct-20 09:37 47.446042 -122.305512 50 441ft 0kts
11-Oct-20 09:38 47.448307 -122.306152 359 441ft 20kts
11-Oct-20 09:39 47.455962 -122.306172 1 441ft 32kts
11-Oct-20 09:40 47.463360 -122.306345 305 441ft 13kts
11-Oct-20 09:41 47.456121 -122.307799 180 441ft 108kts
11-Oct-20 09:42 47.407916 -122.308594 180 2700ft 197kts
11-Oct-20 09:43 47.343389 -122.310309 181 4945ft 260kts
11-Oct-20 09:44 47.269467 -122.309404 180 8432ft 269kts
11-Oct-20 09:45 47.193747 -122.277889 150 10841ft 312kts
11-Oct-20 09:47 47.117332 -122.213000 166 13920ft 320kts
11-Oct-20 09:48 47.022092 -122.170072 168 15093ft 398kts
11-Oct-20 09:49 46.911370 -122.120297 168 17352ft 429kts
11-Oct-20 09:50 46.794100 -122.067267 169 19600ft 452kts
11-Oct-20 09:51 46.670722 -122.011907 169 21571ft 476kts
11-Oct-20 09:52 46.568459 -121.877935 119 23228ft 526kts
11-Oct-20 09:53 46.498542 -121.686766 120 24712ft 547kts
11-Oct-20 09:54 46.420567 -121.492510 120 26008ft 566kts
11-Oct-20 09:55 46.340249 -121.294215 120 27590ft 574kts
11-Oct-20 09:56 46.258858 -121.093749 119 29255ft 580kts
11-Oct-20 09:57 46.176832 -120.891814 120 30717ft 588kts
11-Oct-20 09:58 46.092664 -120.687024 120 31137ft 589kts
11-Oct-20 09:59 46.009149 -120.485476 119 31143ft 587kts
11-Oct-20 10:00 45.924942 -120.283823 119 31146ft 587kts
11-Oct-20 10:01 45.840780 -120.082771 119 31147ft 587kts
11-Oct-20 10:02 45.755875 -119.882770 120 31152ft 587kts
11-Oct-20 10:02 45.684813 -119.716552 120 31153ft 595kts
11-Oct-20 10:04 45.581636 -119.477626 120 31153ft 607kts
11-Oct-20 10:04 45.507573 -119.306334 120 31156ft 607kts
11-Oct-20 10:05 45.418907 -119.101831 120 31167ft 609kts
11-Oct-20 10:06 45.329249 -118.897253 120 31175ft 610kts
11-Oct-20 10:07 45.238981 -118.692889 120 31185ft 611kts
11-Oct-20 10:08 45.148466 -118.489455 120 31190ft 610kts
11-Oct-20 10:09 45.057367 -118.286129 121 31204ft 611kts
11-Oct-20 10:10 44.966374 -118.083684 121 31208ft 611kts
11-Oct-20 10:11 44.874248 -117.881761 122 31208ft 612kts
11-Oct-20 10:12 44.752984 -117.721440 152 31209ft 579kts
11-Oct-20 10:13 44.620666 -117.609724 154 29849ft 553kts
11-Oct-20 10:14 44.491944 -117.496268 153 28264ft 531kts
11-Oct-20 10:15 44.368730 -117.386826 153 26423ft 515kts
11-Oct-20 10:16 44.250166 -117.282517 152 24740ft 495kts
11-Oct-20 10:17 44.145438 -117.163290 137 23161ft 479kts
11-Oct-20 10:18 44.050643 -117.037734 139 21585ft 459kts
11-Oct-20 10:19 43.961343 -116.916126 129 19967ft 442kts
11-Oct-20 10:20 43.894808 -116.778768 124 17712ft 417kts
11-Oct-20 10:21 43.831672 -116.648897 124 15472ft 394kts
11-Oct-20 10:22 43.771817 -116.527794 125 13758ft 358kts
11-Oct-20 10:23 43.718948 -116.421830 125 12850ft 317kts
11-Oct-20 10:24 43.674444 -116.328256 116 12128ft 278kts
11-Oct-20 10:25 43.642174 -116.233694 116 10816ft 264kts
11-Oct-20 10:26 43.615686 -116.141975 109 9508ft 249kts
11-Oct-20 10:27 43.594626 -116.053257 109 8123ft 240kts
11-Oct-20 10:28 43.569801 -115.974909 147 7986ft 209kts
11-Oct-20 10:29 43.517697 -115.936790 154 7768ft 209kts
11-Oct-20 10:30 43.476742 -115.960965 271 6427ft 196kts
11-Oct-20 10:31 43.496695 -116.024878 295 6012ft 175kts
11-Oct-20 10:32 43.518383 -116.084140 294 4708ft 164kts
11-Oct-20 10:33 43.536322 -116.137022 295 3828ft 149kts
11-Oct-20 10:34 43.554264 -116.190155 295 3068ft 152kts
11-Oct-20 10:35 43.565275 -116.222461 297 2879ft 23kts
11-Oct-20 10:36 43.566455 -116.222128 115 2879ft 11kts
11-Oct-20 10:37 43.566944 -116.219641 24 2879ft 0kts
11-Oct-20 10:38 43.566944 -116.219641 24 2879ft 0kts

Navigation Log

Ident Type
Flight plan parsing failed, navigation log unavailable